sensor_id;sensor_type;location;lat;lon;timestamp;P1;durP1;ratioP1;P2;durP2;ratioP2
52776;SDS011;38656;54.260;20.822;2024-01-11T00:00:45;154.82;;;61.58;;
52776;SDS011;38656;54.260;20.822;2024-01-11T00:03:11;173.38;;;66.25;;
52776;SDS011;38656;54.260;20.822;2024-01-11T00:05:37;170.52;;;72.63;;
52776;SDS011;38656;54.260;20.822;2024-01-11T00:08:04;151.10;;;62.78;;
52776;SDS011;38656;54.260;20.822;2024-01-11T00:10:30;114.80;;;52.35;;
52776;SDS011;38656;54.260;20.822;2024-01-11T00:12:56;111.03;;;52.13;;
52776;SDS011;38656;54.260;20.822;2024-01-11T00:15:22;114.63;;;52.70;;
52776;SDS011;38656;54.260;20.822;2024-01-11T00:17:48;75.28;;;34.33;;
52776;SDS011;38656;54.260;20.822;2024-01-11T00:20:14;92.53;;;51.35;;
52776;SDS011;38656;54.260;20.822;2024-01-11T00:22:41;58.83;;;35.88;;
52776;SDS011;38656;54.260;20.822;2024-01-11T00:25:07;80.15;;;53.30;;
52776;SDS011;38656;54.260;20.822;2024-01-11T00:27:33;58.70;;;36.83;;
52776;SDS011;38656;54.260;20.822;2024-01-11T00:30:00;66.97;;;40.72;;
52776;SDS011;38656;54.260;20.822;2024-01-11T00:32:26;67.90;;;41.40;;
52776;SDS011;38656;54.260;20.822;2024-01-11T00:34:52;87.90;;;53.92;;
52776;SDS011;38656;54.260;20.822;2024-01-11T00:37:18;76.07;;;50.80;;
52776;SDS011;38656;54.260;20.822;2024-01-11T00:39:44;49.72;;;40.92;;
52776;SDS011;38656;54.260;20.822;2024-01-11T00:42:11;60.22;;;36.65;;
52776;SDS011;38656;54.260;20.822;2024-01-11T00:44:37;61.15;;;48.83;;
52776;SDS011;38656;54.260;20.822;2024-01-11T00:47:03;40.08;;;31.17;;
52776;SDS011;38656;54.260;20.822;2024-01-11T00:49:30;57.17;;;37.78;;
52776;SDS011;38656;54.260;20.822;2024-01-11T00:51:57;56.30;;;40.05;;
52776;SDS011;38656;54.260;20.822;2024-01-11T00:54:23;50.25;;;33.78;;
52776;SDS011;38656;54.260;20.822;2024-01-11T00:56:49;65.68;;;49.45;;
52776;SDS011;38656;54.260;20.822;2024-01-11T00:59:16;63.20;;;50.15;;
52776;SDS011;38656;54.260;20.822;2024-01-11T01:01:48;59.10;;;46.03;;
52776;SDS011;38656;54.260;20.822;2024-01-11T01:04:15;63.80;;;53.00;;
52776;SDS011;38656;54.260;20.822;2024-01-11T01:06:41;57.80;;;42.58;;
52776;SDS011;38656;54.260;20.822;2024-01-11T01:09:08;56.33;;;42.55;;
52776;SDS011;38656;54.260;20.822;2024-01-11T01:11:34;44.03;;;35.63;;
52776;SDS011;38656;54.260;20.822;2024-01-11T01:14:00;53.55;;;43.88;;
52776;SDS011;38656;54.260;20.822;2024-01-11T01:16:26;57.08;;;39.10;;
52776;SDS011;38656;54.260;20.822;2024-01-11T01:18:53;55.13;;;45.97;;
52776;SDS011;38656;54.260;20.822;2024-01-11T01:21:19;62.20;;;42.97;;
52776;SDS011;38656;54.260;20.822;2024-01-11T01:23:46;56.35;;;44.03;;
52776;SDS011;38656;54.260;20.822;2024-01-11T01:26:12;58.42;;;46.00;;
52776;SDS011;38656;54.260;20.822;2024-01-11T01:28:38;38.22;;;28.35;;
52776;SDS011;38656;54.260;20.822;2024-01-11T01:31:05;85.30;;;53.08;;
52776;SDS011;38656;54.260;20.822;2024-01-11T01:33:31;41.03;;;30.90;;
52776;SDS011;38656;54.260;20.822;2024-01-11T01:35:57;34.83;;;28.13;;
52776;SDS011;38656;54.260;20.822;2024-01-11T01:38:23;34.25;;;27.52;;
52776;SDS011;38656;54.260;20.822;2024-01-11T01:40:49;30.77;;;25.58;;
52776;SDS011;38656;54.260;20.822;2024-01-11T01:43:16;37.95;;;28.05;;
52776;SDS011;38656;54.260;20.822;2024-01-11T01:45:42;40.20;;;36.17;;
52776;SDS011;38656;54.260;20.822;2024-01-11T01:48:08;29.85;;;26.73;;
52776;SDS011;38656;54.260;20.822;2024-01-11T01:50:34;23.95;;;18.92;;
52776;SDS011;38656;54.260;20.822;2024-01-11T01:53:00;23.33;;;20.40;;
52776;SDS011;38656;54.260;20.822;2024-01-11T01:55:28;18.02;;;11.95;;
52776;SDS011;38656;54.260;20.822;2024-01-11T01:57:55;16.20;;;13.43;;
52776;SDS011;38656;54.260;20.822;2024-01-11T02:00:22;17.42;;;11.00;;
52776;SDS011;38656;54.260;20.822;2024-01-11T02:02:50;21.23;;;17.35;;
52776;SDS011;38656;54.260;20.822;2024-01-11T02:05:19;13.25;;;9.57;;
52776;SDS011;38656;54.260;20.822;2024-01-11T02:07:46;12.73;;;7.40;;
52776;SDS011;38656;54.260;20.822;2024-01-11T02:10:12;15.70;;;7.78;;
52776;SDS011;38656;54.260;20.822;2024-01-11T02:12:38;15.02;;;6.85;;
52776;SDS011;38656;54.260;20.822;2024-01-11T02:15:06;10.55;;;5.38;;
52776;SDS011;38656;54.260;20.822;2024-01-11T02:17:33;14.00;;;6.80;;
52776;SDS011;38656;54.260;20.822;2024-01-11T02:19:59;12.75;;;5.50;;
52776;SDS011;38656;54.260;20.822;2024-01-11T02:22:35;6.55;;;3.55;;
52776;SDS011;38656;54.260;20.822;2024-01-11T02:25:03;8.02;;;3.50;;
52776;SDS011;38656;54.260;20.822;2024-01-11T02:27:30;4.75;;;2.78;;
52776;SDS011;38656;54.260;20.822;2024-01-11T02:29:56;6.68;;;3.38;;
52776;SDS011;38656;54.260;20.822;2024-01-11T02:32:22;8.15;;;3.70;;
52776;SDS011;38656;54.260;20.822;2024-01-11T02:34:48;8.90;;;5.25;;
52776;SDS011;38656;54.260;20.822;2024-01-11T02:37:15;14.75;;;7.30;;
52776;SDS011;38656;54.260;20.822;2024-01-11T02:39:43;15.40;;;6.90;;
52776;SDS011;38656;54.260;20.822;2024-01-11T02:42:09;15.48;;;7.05;;
52776;SDS011;38656;54.260;20.822;2024-01-11T02:44:36;10.48;;;6.40;;
52776;SDS011;38656;54.260;20.822;2024-01-11T02:47:02;15.60;;;7.50;;
52776;SDS011;38656;54.260;20.822;2024-01-11T02:49:29;9.75;;;4.35;;
52776;SDS011;38656;54.260;20.822;2024-01-11T02:51:55;8.82;;;4.30;;
52776;SDS011;38656;54.260;20.822;2024-01-11T02:54:21;10.63;;;5.25;;
52776;SDS011;38656;54.260;20.822;2024-01-11T02:56:47;7.57;;;5.32;;
52776;SDS011;38656;54.260;20.822;2024-01-11T02:59:13;6.50;;;3.33;;
52776;SDS011;38656;54.260;20.822;2024-01-11T03:01:39;8.02;;;4.78;;
52776;SDS011;38656;54.260;20.822;2024-01-11T03:04:06;8.80;;;4.47;;
52776;SDS011;38656;54.260;20.822;2024-01-11T03:06:32;8.93;;;4.63;;
52776;SDS011;38656;54.260;20.822;2024-01-11T03:08:58;9.80;;;5.15;;
52776;SDS011;38656;54.260;20.822;2024-01-11T03:11:24;6.57;;;3.40;;
52776;SDS011;38656;54.260;20.822;2024-01-11T03:13:51;7.90;;;3.72;;
52776;SDS011;38656;54.260;20.822;2024-01-11T03:16:17;13.50;;;3.28;;
52776;SDS011;38656;54.260;20.822;2024-01-11T03:18:43;8.90;;;3.83;;
52776;SDS011;38656;54.260;20.822;2024-01-11T03:21:09;10.73;;;2.90;;
52776;SDS011;38656;54.260;20.822;2024-01-11T03:23:35;4.97;;;2.55;;
52776;SDS011;38656;54.260;20.822;2024-01-11T03:26:01;6.70;;;3.17;;
52776;SDS011;38656;54.260;20.822;2024-01-11T03:28:28;7.97;;;3.47;;
52776;SDS011;38656;54.260;20.822;2024-01-11T03:30:54;11.32;;;3.58;;
52776;SDS011;38656;54.260;20.822;2024-01-11T03:33:20;8.98;;;3.67;;
52776;SDS011;38656;54.260;20.822;2024-01-11T03:35:46;9.95;;;4.72;;
52776;SDS011;38656;54.260;20.822;2024-01-11T03:38:12;9.73;;;4.68;;
52776;SDS011;38656;54.260;20.822;2024-01-11T03:40:39;6.45;;;3.97;;
52776;SDS011;38656;54.260;20.822;2024-01-11T03:43:05;11.05;;;6.05;;
52776;SDS011;38656;54.260;20.822;2024-01-11T03:45:31;9.13;;;4.65;;
52776;SDS011;38656;54.260;20.822;2024-01-11T03:47:57;7.45;;;3.20;;
52776;SDS011;38656;54.260;20.822;2024-01-11T03:50:23;10.23;;;5.63;;
52776;SDS011;38656;54.260;20.822;2024-01-11T03:52:49;4.93;;;3.20;;
52776;SDS011;38656;54.260;20.822;2024-01-11T03:55:15;9.68;;;4.97;;
52776;SDS011;38656;54.260;20.822;2024-01-11T03:57:42;20.15;;;10.63;;
52776;SDS011;38656;54.260;20.822;2024-01-11T04:00:09;10.73;;;5.15;;
52776;SDS011;38656;54.260;20.822;2024-01-11T04:02:35;6.63;;;3.40;;
52776;SDS011;38656;54.260;20.822;2024-01-11T04:05:02;10.00;;;3.70;;
52776;SDS011;38656;54.260;20.822;2024-01-11T04:07:28;5.65;;;3.10;;
52776;SDS011;38656;54.260;20.822;2024-01-11T04:09:54;4.22;;;2.47;;
52776;SDS011;38656;54.260;20.822;2024-01-11T04:12:20;6.20;;;2.70;;
52776;SDS011;38656;54.260;20.822;2024-01-11T04:14:46;5.55;;;2.67;;
52776;SDS011;38656;54.260;20.822;2024-01-11T04:17:13;7.78;;;2.38;;
52776;SDS011;38656;54.260;20.822;2024-01-11T04:19:39;3.40;;;2.05;;
52776;SDS011;38656;54.260;20.822;2024-01-11T04:22:05;5.35;;;2.88;;
52776;SDS011;38656;54.260;20.822;2024-01-11T04:24:31;6.10;;;3.38;;
52776;SDS011;38656;54.260;20.822;2024-01-11T04:26:57;4.40;;;3.53;;
52776;SDS011;38656;54.260;20.822;2024-01-11T04:29:23;9.82;;;5.55;;
52776;SDS011;38656;54.260;20.822;2024-01-11T04:31:50;8.13;;;4.22;;
52776;SDS011;38656;54.260;20.822;2024-01-11T04:34:16;8.85;;;5.38;;
52776;SDS011;38656;54.260;20.822;2024-01-11T04:36:42;9.95;;;5.38;;
52776;SDS011;38656;54.260;20.822;2024-01-11T04:39:08;12.18;;;6.82;;
52776;SDS011;38656;54.260;20.822;2024-01-11T04:41:35;11.82;;;5.72;;
52776;SDS011;38656;54.260;20.822;2024-01-11T04:44:04;7.82;;;4.28;;
52776;SDS011;38656;54.260;20.822;2024-01-11T04:46:30;9.25;;;3.63;;
52776;SDS011;38656;54.260;20.822;2024-01-11T04:48:56;9.57;;;5.30;;
52776;SDS011;38656;54.260;20.822;2024-01-11T04:51:23;6.68;;;3.83;;
52776;SDS011;38656;54.260;20.822;2024-01-11T04:53:49;6.45;;;3.05;;
52776;SDS011;38656;54.260;20.822;2024-01-11T04:56:15;12.00;;;3.47;;
52776;SDS011;38656;54.260;20.822;2024-01-11T04:58:42;13.50;;;6.03;;
52776;SDS011;38656;54.260;20.822;2024-01-11T05:01:13;9.70;;;4.13;;
52776;SDS011;38656;54.260;20.822;2024-01-11T05:03:40;11.45;;;4.18;;
52776;SDS011;38656;54.260;20.822;2024-01-11T05:06:07;7.60;;;4.45;;
52776;SDS011;38656;54.260;20.822;2024-01-11T05:08:33;13.30;;;5.43;;
52776;SDS011;38656;54.260;20.822;2024-01-11T05:11:00;13.95;;;5.60;;
52776;SDS011;38656;54.260;20.822;2024-01-11T05:13:26;22.90;;;7.45;;
52776;SDS011;38656;54.260;20.822;2024-01-11T05:15:52;14.93;;;8.60;;
52776;SDS011;38656;54.260;20.822;2024-01-11T05:18:18;16.27;;;7.90;;
52776;SDS011;38656;54.260;20.822;2024-01-11T05:20:44;26.30;;;15.52;;
52776;SDS011;38656;54.260;20.822;2024-01-11T05:23:10;12.10;;;5.07;;
52776;SDS011;38656;54.260;20.822;2024-01-11T05:25:36;10.80;;;4.75;;
52776;SDS011;38656;54.260;20.822;2024-01-11T05:28:03;10.93;;;5.28;;
52776;SDS011;38656;54.260;20.822;2024-01-11T05:30:32;7.35;;;3.25;;
52776;SDS011;38656;54.260;20.822;2024-01-11T05:32:58;8.90;;;5.28;;
52776;SDS011;38656;54.260;20.822;2024-01-11T05:35:25;12.68;;;6.05;;
52776;SDS011;38656;54.260;20.822;2024-01-11T05:37:53;8.60;;;4.75;;
52776;SDS011;38656;54.260;20.822;2024-01-11T05:40:20;6.80;;;3.25;;
52776;SDS011;38656;54.260;20.822;2024-01-11T05:42:46;5.07;;;2.58;;
52776;SDS011;38656;54.260;20.822;2024-01-11T05:45:13;7.43;;;3.55;;
52776;SDS011;38656;54.260;20.822;2024-01-11T05:47:42;3.78;;;2.10;;
52776;SDS011;38656;54.260;20.822;2024-01-11T05:50:09;10.20;;;5.20;;
52776;SDS011;38656;54.260;20.822;2024-01-11T05:52:36;12.73;;;11.13;;
52776;SDS011;38656;54.260;20.822;2024-01-11T05:55:02;32.25;;;26.67;;
52776;SDS011;38656;54.260;20.822;2024-01-11T05:57:30;29.48;;;21.90;;
52776;SDS011;38656;54.260;20.822;2024-01-11T05:59:56;15.75;;;9.80;;
52776;SDS011;38656;54.260;20.822;2024-01-11T06:02:22;12.27;;;6.63;;
52776;SDS011;38656;54.260;20.822;2024-01-11T06:04:48;9.68;;;5.25;;
52776;SDS011;38656;54.260;20.822;2024-01-11T06:07:15;17.85;;;8.02;;
52776;SDS011;38656;54.260;20.822;2024-01-11T06:09:41;16.10;;;8.07;;
52776;SDS011;38656;54.260;20.822;2024-01-11T06:12:07;16.42;;;7.40;;
52776;SDS011;38656;54.260;20.822;2024-01-11T06:14:34;20.92;;;14.02;;
52776;SDS011;38656;54.260;20.822;2024-01-11T06:17:00;8.65;;;6.05;;
52776;SDS011;38656;54.260;20.822;2024-01-11T06:19:26;18.02;;;7.65;;
52776;SDS011;38656;54.260;20.822;2024-01-11T06:21:52;11.90;;;6.47;;
52776;SDS011;38656;54.260;20.822;2024-01-11T06:24:19;8.48;;;4.97;;
52776;SDS011;38656;54.260;20.822;2024-01-11T06:26:45;17.90;;;8.13;;
52776;SDS011;38656;54.260;20.822;2024-01-11T06:29:11;11.93;;;9.68;;
52776;SDS011;38656;54.260;20.822;2024-01-11T06:31:37;9.18;;;5.18;;
52776;SDS011;38656;54.260;20.822;2024-01-11T06:34:03;11.30;;;7.32;;
52776;SDS011;38656;54.260;20.822;2024-01-11T06:36:30;14.02;;;5.18;;
52776;SDS011;38656;54.260;20.822;2024-01-11T06:38:56;14.10;;;6.95;;
52776;SDS011;38656;54.260;20.822;2024-01-11T06:41:22;10.50;;;3.65;;
52776;SDS011;38656;54.260;20.822;2024-01-11T06:43:49;4.30;;;2.90;;
52776;SDS011;38656;54.260;20.822;2024-01-11T06:46:19;23.75;;;14.82;;
52776;SDS011;38656;54.260;20.822;2024-01-11T06:48:46;11.20;;;6.90;;
52776;SDS011;38656;54.260;20.822;2024-01-11T06:51:14;13.68;;;8.20;;
52776;SDS011;38656;54.260;20.822;2024-01-11T06:53:41;14.05;;;12.63;;
52776;SDS011;38656;54.260;20.822;2024-01-11T06:56:16;16.17;;;13.43;;
52776;SDS011;38656;54.260;20.822;2024-01-11T06:58:44;16.45;;;9.23;;
52776;SDS011;38656;54.260;20.822;2024-01-11T07:01:11;18.70;;;10.63;;
52776;SDS011;38656;54.260;20.822;2024-01-11T07:03:38;21.25;;;14.25;;
52776;SDS011;38656;54.260;20.822;2024-01-11T07:06:05;13.80;;;6.63;;
52776;SDS011;38656;54.260;20.822;2024-01-11T07:08:32;14.60;;;7.85;;
52776;SDS011;38656;54.260;20.822;2024-01-11T07:11:00;10.15;;;5.20;;
52776;SDS011;38656;54.260;20.822;2024-01-11T07:13:32;9.18;;;4.03;;
52776;SDS011;38656;54.260;20.822;2024-01-11T07:15:58;10.38;;;6.30;;
52776;SDS011;38656;54.260;20.822;2024-01-11T07:18:25;11.60;;;5.20;;
52776;SDS011;38656;54.260;20.822;2024-01-11T07:20:52;11.18;;;6.18;;
52776;SDS011;38656;54.260;20.822;2024-01-11T07:23:21;7.57;;;5.45;;
52776;SDS011;38656;54.260;20.822;2024-01-11T07:25:47;10.30;;;5.95;;
52776;SDS011;38656;54.260;20.822;2024-01-11T07:28:13;11.90;;;4.95;;
52776;SDS011;38656;54.260;20.822;2024-01-11T07:30:39;11.32;;;5.72;;
52776;SDS011;38656;54.260;20.822;2024-01-11T07:33:06;7.70;;;4.88;;
52776;SDS011;38656;54.260;20.822;2024-01-11T07:35:32;12.98;;;5.45;;
52776;SDS011;38656;54.260;20.822;2024-01-11T07:37:58;11.70;;;5.70;;
52776;SDS011;38656;54.260;20.822;2024-01-11T07:40:25;10.82;;;4.20;;
52776;SDS011;38656;54.260;20.822;2024-01-11T07:42:51;20.58;;;11.85;;
52776;SDS011;38656;54.260;20.822;2024-01-11T07:45:18;18.75;;;9.30;;
52776;SDS011;38656;54.260;20.822;2024-01-11T07:47:46;11.13;;;6.55;;
52776;SDS011;38656;54.260;20.822;2024-01-11T07:50:13;31.50;;;23.08;;
52776;SDS011;38656;54.260;20.822;2024-01-11T07:52:39;11.57;;;7.07;;
52776;SDS011;38656;54.260;20.822;2024-01-11T07:55:08;12.48;;;5.00;;
52776;SDS011;38656;54.260;20.822;2024-01-11T07:57:37;11.15;;;5.78;;
52776;SDS011;38656;54.260;20.822;2024-01-11T08:00:06;18.00;;;7.72;;
52776;SDS011;38656;54.260;20.822;2024-01-11T08:02:33;10.05;;;5.22;;
52776;SDS011;38656;54.260;20.822;2024-01-11T08:05:00;12.52;;;6.50;;
52776;SDS011;38656;54.260;20.822;2024-01-11T08:07:26;14.75;;;8.98;;
52776;SDS011;38656;54.260;20.822;2024-01-11T08:09:53;20.20;;;9.55;;
52776;SDS011;38656;54.260;20.822;2024-01-11T08:12:20;17.83;;;11.20;;
52776;SDS011;38656;54.260;20.822;2024-01-11T08:14:46;18.85;;;8.32;;
52776;SDS011;38656;54.260;20.822;2024-01-11T08:17:13;27.63;;;14.75;;
52776;SDS011;38656;54.260;20.822;2024-01-11T08:19:40;31.20;;;17.02;;
52776;SDS011;38656;54.260;20.822;2024-01-11T08:22:07;28.50;;;16.42;;
52776;SDS011;38656;54.260;20.822;2024-01-11T08:24:34;44.42;;;23.92;;
52776;SDS011;38656;54.260;20.822;2024-01-11T08:27:01;44.40;;;23.65;;
52776;SDS011;38656;54.260;20.822;2024-01-11T08:29:27;64.75;;;29.80;;
52776;SDS011;38656;54.260;20.822;2024-01-11T08:31:54;36.70;;;15.95;;
52776;SDS011;38656;54.260;20.822;2024-01-11T08:34:21;65.75;;;25.30;;
52776;SDS011;38656;54.260;20.822;2024-01-11T08:36:48;36.38;;;15.38;;
52776;SDS011;38656;54.260;20.822;2024-01-11T08:39:14;78.38;;;42.45;;
52776;SDS011;38656;54.260;20.822;2024-01-11T08:41:41;64.80;;;34.85;;
52776;SDS011;38656;54.260;20.822;2024-01-11T08:44:07;50.28;;;33.40;;
52776;SDS011;38656;54.260;20.822;2024-01-11T08:46:34;196.63;;;83.28;;
52776;SDS011;38656;54.260;20.822;2024-01-11T08:49:00;204.70;;;98.22;;
52776;SDS011;38656;54.260;20.822;2024-01-11T08:51:28;128.63;;;77.28;;
52776;SDS011;38656;54.260;20.822;2024-01-11T08:53:55;42.20;;;26.17;;
52776;SDS011;38656;54.260;20.822;2024-01-11T08:56:21;28.13;;;15.98;;
52776;SDS011;38656;54.260;20.822;2024-01-11T08:58:48;31.08;;;16.95;;
52776;SDS011;38656;54.260;20.822;2024-01-11T09:01:14;27.95;;;15.02;;
52776;SDS011;38656;54.260;20.822;2024-01-11T09:03:41;22.00;;;12.40;;
52776;SDS011;38656;54.260;20.822;2024-01-11T09:06:07;13.63;;;7.80;;
52776;SDS011;38656;54.260;20.822;2024-01-11T09:08:33;15.90;;;7.60;;
52776;SDS011;38656;54.260;20.822;2024-01-11T09:10:59;14.00;;;9.05;;
52776;SDS011;38656;54.260;20.822;2024-01-11T09:13:26;23.10;;;12.85;;
52776;SDS011;38656;54.260;20.822;2024-01-11T09:15:53;30.17;;;22.25;;
52776;SDS011;38656;54.260;20.822;2024-01-11T09:18:19;28.77;;;18.20;;
52776;SDS011;38656;54.260;20.822;2024-01-11T09:20:46;31.25;;;16.77;;
52776;SDS011;38656;54.260;20.822;2024-01-11T09:23:13;52.83;;;27.73;;
52776;SDS011;38656;54.260;20.822;2024-01-11T09:25:41;42.03;;;22.90;;
52776;SDS011;38656;54.260;20.822;2024-01-11T09:28:07;27.67;;;22.20;;
52776;SDS011;38656;54.260;20.822;2024-01-11T09:30:33;27.20;;;22.23;;
52776;SDS011;38656;54.260;20.822;2024-01-11T09:32:59;10.98;;;7.13;;
52776;SDS011;38656;54.260;20.822;2024-01-11T09:35:26;21.75;;;11.40;;
52776;SDS011;38656;54.260;20.822;2024-01-11T09:37:52;27.88;;;19.75;;
52776;SDS011;38656;54.260;20.822;2024-01-11T09:40:19;67.28;;;33.72;;
52776;SDS011;38656;54.260;20.822;2024-01-11T09:42:45;79.18;;;35.95;;
52776;SDS011;38656;54.260;20.822;2024-01-11T09:45:14;60.30;;;30.08;;
52776;SDS011;38656;54.260;20.822;2024-01-11T09:47:42;58.05;;;26.58;;
52776;SDS011;38656;54.260;20.822;2024-01-11T09:50:11;18.90;;;11.80;;
52776;SDS011;38656;54.260;20.822;2024-01-11T09:52:44;13.27;;;5.78;;
52776;SDS011;38656;54.260;20.822;2024-01-11T09:55:15;16.42;;;8.05;;
52776;SDS011;38656;54.260;20.822;2024-01-11T09:57:43;9.32;;;6.65;;
52776;SDS011;38656;54.260;20.822;2024-01-11T10:00:18;14.07;;;7.38;;
52776;SDS011;38656;54.260;20.822;2024-01-11T10:02:47;10.25;;;4.55;;
52776;SDS011;38656;54.260;20.822;2024-01-11T10:05:15;14.70;;;7.55;;
52776;SDS011;38656;54.260;20.822;2024-01-11T10:07:42;11.55;;;7.10;;
52776;SDS011;38656;54.260;20.822;2024-01-11T10:10:08;23.50;;;9.80;;
52776;SDS011;38656;54.260;20.822;2024-01-11T10:12:35;17.98;;;12.60;;
52776;SDS011;38656;54.260;20.822;2024-01-11T10:15:05;15.18;;;10.65;;
52776;SDS011;38656;54.260;20.822;2024-01-11T10:17:36;24.23;;;15.18;;
52776;SDS011;38656;54.260;20.822;2024-01-11T10:20:09;42.35;;;27.48;;
52776;SDS011;38656;54.260;20.822;2024-01-11T10:22:42;16.48;;;11.35;;
52776;SDS011;38656;54.260;20.822;2024-01-11T10:27:37;16.55;;;12.70;;
52776;SDS011;38656;54.260;20.822;2024-01-11T10:30:07;31.75;;;23.27;;
52776;SDS011;38656;54.260;20.822;2024-01-11T10:32:38;109.70;;;48.20;;
52776;SDS011;38656;54.260;20.822;2024-01-11T10:35:05;56.95;;;27.75;;
52776;SDS011;38656;54.260;20.822;2024-01-11T10:37:32;30.95;;;16.73;;
52776;SDS011;38656;54.260;20.822;2024-01-11T10:39:58;42.83;;;22.63;;
52776;SDS011;38656;54.260;20.822;2024-01-11T10:42:34;24.05;;;13.68;;
52776;SDS011;38656;54.260;20.822;2024-01-11T10:45:05;26.85;;;14.00;;
52776;SDS011;38656;54.260;20.822;2024-01-11T10:47:42;36.85;;;23.25;;
52776;SDS011;38656;54.260;20.822;2024-01-11T10:50:11;49.80;;;34.10;;
52776;SDS011;38656;54.260;20.822;2024-01-11T10:52:40;35.97;;;22.98;;
52776;SDS011;38656;54.260;20.822;2024-01-11T10:55:14;44.97;;;30.58;;
52776;SDS011;38656;54.260;20.822;2024-01-11T10:57:42;35.97;;;26.73;;
52776;SDS011;38656;54.260;20.822;2024-01-11T11:00:08;55.15;;;38.38;;
52776;SDS011;38656;54.260;20.822;2024-01-11T11:02:37;43.90;;;26.13;;
52776;SDS011;38656;54.260;20.822;2024-01-11T11:05:04;42.63;;;27.20;;
52776;SDS011;38656;54.260;20.822;2024-01-11T11:07:34;21.75;;;13.63;;
52776;SDS011;38656;54.260;20.822;2024-01-11T11:10:02;33.50;;;19.08;;
52776;SDS011;38656;54.260;20.822;2024-01-11T11:12:31;14.63;;;7.97;;
52776;SDS011;38656;54.260;20.822;2024-01-11T11:14:59;59.15;;;23.92;;
52776;SDS011;38656;54.260;20.822;2024-01-11T11:17:29;24.33;;;14.35;;
52776;SDS011;38656;54.260;20.822;2024-01-11T11:19:55;39.70;;;22.00;;
52776;SDS011;38656;54.260;20.822;2024-01-11T11:22:22;31.83;;;15.48;;
52776;SDS011;38656;54.260;20.822;2024-01-11T11:25:02;32.13;;;27.58;;
52776;SDS011;38656;54.260;20.822;2024-01-11T11:27:33;33.53;;;22.98;;
52776;SDS011;38656;54.260;20.822;2024-01-11T11:29:59;36.67;;;32.55;;
52776;SDS011;38656;54.260;20.822;2024-01-11T11:32:38;33.28;;;24.33;;
52776;SDS011;38656;54.260;20.822;2024-01-11T11:35:08;20.17;;;14.75;;
52776;SDS011;38656;54.260;20.822;2024-01-11T11:37:38;37.15;;;23.60;;
52776;SDS011;38656;54.260;20.822;2024-01-11T11:40:05;16.88;;;11.55;;
52776;SDS011;38656;54.260;20.822;2024-01-11T11:42:38;10.55;;;6.05;;
52776;SDS011;38656;54.260;20.822;2024-01-11T11:45:06;11.30;;;6.70;;
52776;SDS011;38656;54.260;20.822;2024-01-11T11:47:36;13.55;;;8.95;;
52776;SDS011;38656;54.260;20.822;2024-01-11T11:50:10;15.68;;;8.77;;
52776;SDS011;38656;54.260;20.822;2024-01-11T11:52:39;18.42;;;11.52;;
52776;SDS011;38656;54.260;20.822;2024-01-11T11:55:09;18.45;;;10.05;;
52776;SDS011;38656;54.260;20.822;2024-01-11T11:57:36;16.80;;;10.77;;
52776;SDS011;38656;54.260;20.822;2024-01-11T12:00:03;17.77;;;9.45;;
52776;SDS011;38656;54.260;20.822;2024-01-11T12:02:31;17.85;;;9.45;;
52776;SDS011;38656;54.260;20.822;2024-01-11T12:05:01;18.98;;;5.85;;
52776;SDS011;38656;54.260;20.822;2024-01-11T12:07:29;12.00;;;5.55;;
52776;SDS011;38656;54.260;20.822;2024-01-11T12:09:55;16.83;;;6.60;;
52776;SDS011;38656;54.260;20.822;2024-01-11T12:12:22;12.25;;;6.60;;
52776;SDS011;38656;54.260;20.822;2024-01-11T12:14:49;16.33;;;9.98;;
52776;SDS011;38656;54.260;20.822;2024-01-11T12:17:15;13.75;;;8.07;;
52776;SDS011;38656;54.260;20.822;2024-01-11T12:19:42;11.25;;;7.63;;
52776;SDS011;38656;54.260;20.822;2024-01-11T12:22:08;13.13;;;5.90;;
52776;SDS011;38656;54.260;20.822;2024-01-11T12:24:34;13.40;;;6.97;;
52776;SDS011;38656;54.260;20.822;2024-01-11T12:27:01;18.17;;;13.35;;
52776;SDS011;38656;54.260;20.822;2024-01-11T12:29:30;19.70;;;10.15;;
52776;SDS011;38656;54.260;20.822;2024-01-11T12:31:58;18.58;;;10.80;;
52776;SDS011;38656;54.260;20.822;2024-01-11T12:34:24;18.00;;;9.05;;
52776;SDS011;38656;54.260;20.822;2024-01-11T12:36:52;18.88;;;12.00;;
52776;SDS011;38656;54.260;20.822;2024-01-11T12:39:20;24.08;;;12.32;;
52776;SDS011;38656;54.260;20.822;2024-01-11T12:41:50;16.20;;;9.10;;
52776;SDS011;38656;54.260;20.822;2024-01-11T12:44:19;13.32;;;8.20;;
52776;SDS011;38656;54.260;20.822;2024-01-11T12:46:49;18.33;;;9.23;;
52776;SDS011;38656;54.260;20.822;2024-01-11T12:49:16;11.82;;;8.30;;
52776;SDS011;38656;54.260;20.822;2024-01-11T12:51:42;7.80;;;5.30;;
52776;SDS011;38656;54.260;20.822;2024-01-11T12:54:12;17.23;;;8.55;;
52776;SDS011;38656;54.260;20.822;2024-01-11T12:56:44;11.10;;;7.78;;
52776;SDS011;38656;54.260;20.822;2024-01-11T12:59:10;8.60;;;4.10;;
52776;SDS011;38656;54.260;20.822;2024-01-11T13:01:40;8.98;;;4.20;;
52776;SDS011;38656;54.260;20.822;2024-01-11T13:04:10;5.53;;;2.83;;
52776;SDS011;38656;54.260;20.822;2024-01-11T13:06:36;7.10;;;4.05;;
52776;SDS011;38656;54.260;20.822;2024-01-11T13:09:03;5.30;;;2.70;;
52776;SDS011;38656;54.260;20.822;2024-01-11T13:11:29;5.82;;;3.67;;
52776;SDS011;38656;54.260;20.822;2024-01-11T13:13:55;4.38;;;2.72;;
52776;SDS011;38656;54.260;20.822;2024-01-11T13:16:24;15.77;;;8.48;;
52776;SDS011;38656;54.260;20.822;2024-01-11T13:18:51;15.07;;;9.23;;
52776;SDS011;38656;54.260;20.822;2024-01-11T13:21:17;120.75;;;67.32;;
52776;SDS011;38656;54.260;20.822;2024-01-11T13:23:43;117.90;;;83.47;;
52776;SDS011;38656;54.260;20.822;2024-01-11T13:26:10;22.35;;;20.30;;
52776;SDS011;38656;54.260;20.822;2024-01-11T13:28:36;18.85;;;17.27;;
52776;SDS011;38656;54.260;20.822;2024-01-11T13:31:02;5.72;;;3.30;;
52776;SDS011;38656;54.260;20.822;2024-01-11T13:33:29;10.95;;;4.38;;
52776;SDS011;38656;54.260;20.822;2024-01-11T13:35:55;4.10;;;3.53;;
52776;SDS011;38656;54.260;20.822;2024-01-11T13:38:21;10.60;;;8.95;;
52776;SDS011;38656;54.260;20.822;2024-01-11T13:40:48;7.68;;;5.25;;
52776;SDS011;38656;54.260;20.822;2024-01-11T13:43:14;9.02;;;5.80;;
52776;SDS011;38656;54.260;20.822;2024-01-11T13:45:42;4.90;;;2.17;;
52776;SDS011;38656;54.260;20.822;2024-01-11T13:48:09;8.13;;;3.35;;
52776;SDS011;38656;54.260;20.822;2024-01-11T13:50:35;9.50;;;4.90;;
52776;SDS011;38656;54.260;20.822;2024-01-11T13:53:02;8.15;;;5.55;;
52776;SDS011;38656;54.260;20.822;2024-01-11T13:55:28;5.55;;;4.60;;
52776;SDS011;38656;54.260;20.822;2024-01-11T13:58:02;8.00;;;4.05;;
52776;SDS011;38656;54.260;20.822;2024-01-11T14:00:29;7.55;;;4.78;;
52776;SDS011;38656;54.260;20.822;2024-01-11T14:02:55;12.27;;;6.65;;
52776;SDS011;38656;54.260;20.822;2024-01-11T14:05:22;13.40;;;7.15;;
52776;SDS011;38656;54.260;20.822;2024-01-11T14:07:48;18.65;;;8.65;;
52776;SDS011;38656;54.260;20.822;2024-01-11T14:10:19;10.00;;;7.03;;
52776;SDS011;38656;54.260;20.822;2024-01-11T14:12:45;6.85;;;4.32;;
52776;SDS011;38656;54.260;20.822;2024-01-11T14:15:12;5.63;;;3.42;;
52776;SDS011;38656;54.260;20.822;2024-01-11T14:17:38;17.20;;;5.35;;
52776;SDS011;38656;54.260;20.822;2024-01-11T14:20:05;11.27;;;6.28;;